CHICAGO AURORA MUNICIPAL, IL, United States (KARR) 41-46N 088-28W 215M
Wind: from the SSE (160 degrees) at 3 MPH (3 KT):0
Visibility: 10 mile(s):0
Sky conditions: clear
Temperature: 48.0 F (8.9 C)
Dew Point: 28.0 F (-2.2 C)
Relative Humidity: 45%
Pressure (altimeter): 30.41 in. Hg (1029 hPa)
Pressure tendency: 0.03 inches (0.9 hPa) higher than three hours ago
ob: KARR 130252Z AUTO 16003KT 10SM CLR 09/M02 A3041 RMK AO2 SLP299 T00891022 53009
Raw METAR:KARR 130252Z AUTO 16003KT 10SM CLR 09/M02 A3041 RMK AO2 SLP299 T00891022 53009
cycle: 3
Back to top

CHICAGO/WEST CH DUPAGE, IL, United States (KDPA) 41-54N 88-15W 230M
Wind: Calm:0
Visibility: 10 mile(s):0
Sky conditions: clear
Temperature: 51.1 F (10.6 C)
Dew Point: 21.9 F (-5.6 C)
Relative Humidity: 31%
Pressure (altimeter): 30.41 in. Hg (1029 hPa)
Pressure tendency: 0.02 inches (0.7 hPa) higher than three hours ago
ob: KDPA 130252Z 00000KT 10SM CLR 11/M06 A3041 RMK AO2 SLP298 T01061056 53007
Raw METAR:KDPA 130252Z 00000KT 10SM CLR 11/M06 A3041 RMK AO2 SLP298 T01061056 53007
cycle: 3
Back to top

De Kalb, De Kalb Taylor Municipal Airport, IL, United States (KDKB) 41-55-55N 088-42-30W
Wind: from the SE (130 degrees) at 3 MPH (3 KT):0
Visibility: 10 mile(s):0
Sky conditions: clear
Temperature: 45.0 F (7.2 C)
Dew Point: 29.3 F (-1.5 C)
Relative Humidity: 53%
Pressure (altimeter): 30.43 in. Hg (1030 hPa)
ob: KDKB 130335Z AUTO 13003KT 10SM CLR 07/M01 A3043 RMK AO2 T00721015
Raw METAR:KDKB 130335Z AUTO 13003KT 10SM CLR 07/M01 A3043 RMK AO2 T00721015
cycle: 3
Back to top

Joliet, Joliet Regional Airport, IL, United States (KJOT) 41-31-05N 088-10-31W
Wind: Calm:0
Visibility: 10 mile(s):0
Sky conditions: clear
Temperature: 44.6 F (7.0 C)
Dew Point: 29.3 F (-1.5 C)
Relative Humidity: 54%
Pressure (altimeter): 30.43 in. Hg (1030 hPa)
ob: KJOT 130315Z AUTO 00000KT 10SM CLR 07/M01 A3043 RMK AO2 T00701015
Raw METAR:KJOT 130315Z AUTO 00000KT 10SM CLR 07/M01 A3043 RMK AO2 T00701015
cycle: 3
Back to top

Kankakee, Greater Kankakee Airport, IL, United States (KIKK) 41-04-17N 087-50-47W
Wind: Calm:0
Visibility: 10 mile(s):0
Sky conditions: clear
Temperature: 42.6 F (5.9 C)
Dew Point: 31.1 F (-0.5 C)
Relative Humidity: 63%
Pressure (altimeter): 30.43 in. Hg (1030 hPa)
ob: KIKK 130315Z AUTO 00000KT 10SM CLR 06/00 A3043 RMK AO2 T00591005
Raw METAR:KIKK 130315Z AUTO 00000KT 10SM CLR 06/00 A3043 RMK AO2 T00591005
cycle: 3
Back to top

Morris, Morris Municipal-James R Washburn Field Airport, IL, United States (KC09) 41-25-31N 088-25-07W
Wind: Calm:0
Visibility: 10 mile(s):0
Sky conditions: clear
Temperature: 50.4 F (10.2 C)
Dew Point: 27.0 F (-2.8 C)
Relative Humidity: 39%
Pressure (altimeter): 30.41 in. Hg (1029 hPa)
ob: KC09 130335Z AUTO 00000KT 10SM CLR 10/M03 A3041 RMK AO2 T01021028
Raw METAR:KC09 130335Z AUTO 00000KT 10SM CLR 10/M03 A3041 RMK AO2 T01021028
cycle: 3
Back to top

Peru, Illinois Valley Regional-Walter A Duncan Field Airport, IL, United States (KVYS) 41-21-07N 089-09-11W
Wind: from the ESE (120 degrees) at 8 MPH (7 KT):0
Visibility: 10 mile(s):0
Sky conditions: clear
Temperature: 53.6 F (12.0 C)
Dew Point: 32.0 F (0.0 C)
Relative Humidity: 43%
Pressure (altimeter): 30.42 in. Hg (1030 hPa)
ob: KVYS 130315Z AUTO 12007KT 10SM CLR 12/00 A3042 RMK AO2 T01200000
Raw METAR:KVYS 130315Z AUTO 12007KT 10SM CLR 12/00 A3042 RMK AO2 T01200000
cycle: 3
Back to top

Rochelle, Rochelle Municipal-Koritz Field Airport, IL, United States (KRPJ) 41-53-35N 089-04-42W
Wind: from the SSE (150 degrees) at 5 MPH (4 KT):0
Visibility: 10 mile(s):0
Sky conditions: clear
Temperature: 48.2 F (9.0 C)
Dew Point: 32.0 F (0.0 C)
Relative Humidity: 53%
Pressure (altimeter): 30.42 in. Hg (1030 hPa)
ob: KRPJ 130315Z AUTO 15004KT 10SM CLR 09/00 A3042 RMK AO2 T00900000 TSNO
Raw METAR:KRPJ 130315Z AUTO 15004KT 10SM CLR 09/00 A3042 RMK AO2 T00900000 TSNO
cycle: 3
Back to top